sensor_id;sensor_type;location;lat;lon;timestamp;pressure;altitude;pressure_sealevel;temperature;humidity
62548;BME280;48602;45.192;5.722;2023-03-24T00:00:15;98800.09;;;14.35;69.07
62548;BME280;48602;45.192;5.722;2023-03-24T00:02:42;98799.06;;;14.37;69.24
62548;BME280;48602;45.192;5.722;2023-03-24T00:05:12;98780.59;;;14.36;69.27
62548;BME280;48602;45.192;5.722;2023-03-24T00:07:38;98794.03;;;14.32;69.31
62548;BME280;48602;45.192;5.722;2023-03-24T00:10:09;98792.31;;;14.31;69.50
62548;BME280;48602;45.192;5.722;2023-03-24T00:12:36;98795.91;;;14.30;69.68
62548;BME280;48602;45.192;5.722;2023-03-24T00:15:08;98783.59;;;14.29;69.72
62548;BME280;48602;45.192;5.722;2023-03-24T00:17:34;98794.97;;;14.31;69.61
62548;BME280;48602;45.192;5.722;2023-03-24T00:20:03;98782.56;;;14.32;69.60
62548;BME280;48602;45.192;5.722;2023-03-24T00:22:32;98779.81;;;14.33;69.64
62548;BME280;48602;45.192;5.722;2023-03-24T00:25:00;98784.09;;;14.36;69.91
62548;BME280;48602;45.192;5.722;2023-03-24T00:27:29;98789.31;;;14.38;70.21
62548;BME280;48602;45.192;5.722;2023-03-24T00:29:54;98781.25;;;14.39;70.77
62548;BME280;48602;45.192;5.722;2023-03-24T00:32:23;98783.91;;;14.39;70.42
62548;BME280;48602;45.192;5.722;2023-03-24T00:34:49;98789.31;;;14.38;70.44
62548;BME280;48602;45.192;5.722;2023-03-24T00:37:15;98787.03;;;14.31;70.04
62548;BME280;48602;45.192;5.722;2023-03-24T00:39:41;98790.63;;;14.30;69.86
62548;BME280;48602;45.192;5.722;2023-03-24T00:42:08;98790.97;;;14.24;70.55
62548;BME280;48602;45.192;5.722;2023-03-24T00:44:33;98782.47;;;14.19;69.72
62548;BME280;48602;45.192;5.722;2023-03-24T00:47:00;98776.41;;;14.17;70.38
62548;BME280;48602;45.192;5.722;2023-03-24T00:49:28;98773.06;;;14.14;70.86
62548;BME280;48602;45.192;5.722;2023-03-24T00:52:11;98777.91;;;14.07;70.90
62548;BME280;48602;45.192;5.722;2023-03-24T00:54:39;98769.53;;;13.99;71.53
62548;BME280;48602;45.192;5.722;2023-03-24T00:57:06;98768.31;;;13.90;73.17
62548;BME280;48602;45.192;5.722;2023-03-24T00:59:33;98783.03;;;13.80;72.57
62548;BME280;48602;45.192;5.722;2023-03-24T01:02:10;98759.44;;;13.76;75.00
62548;BME280;48602;45.192;5.722;2023-03-24T01:04:38;98760.00;;;13.67;74.03
62548;BME280;48602;45.192;5.722;2023-03-24T01:07:04;98759.31;;;13.63;73.58
62548;BME280;48602;45.192;5.722;2023-03-24T01:09:30;98764.59;;;13.63;73.33
62548;BME280;48602;45.192;5.722;2023-03-24T01:11:56;98763.84;;;13.61;73.21
62548;BME280;48602;45.192;5.722;2023-03-24T01:14:22;98751.63;;;13.58;73.89
62548;BME280;48602;45.192;5.722;2023-03-24T01:16:48;98744.63;;;13.57;74.00
62548;BME280;48602;45.192;5.722;2023-03-24T01:19:13;98754.28;;;13.58;74.03
62548;BME280;48602;45.192;5.722;2023-03-24T01:21:41;98751.53;;;13.60;73.60
62548;BME280;48602;45.192;5.722;2023-03-24T01:24:08;98755.22;;;13.57;73.85
62548;BME280;48602;45.192;5.722;2023-03-24T01:26:34;98749.09;;;13.57;74.12
62548;BME280;48602;45.192;5.722;2023-03-24T01:28:59;98764.13;;;13.56;75.66
62548;BME280;48602;45.192;5.722;2023-03-24T01:31:25;98767.03;;;13.52;75.16
62548;BME280;48602;45.192;5.722;2023-03-24T01:33:50;98774.13;;;13.51;74.71
62548;BME280;48602;45.192;5.722;2023-03-24T01:36:16;98772.34;;;13.52;74.76
62548;BME280;48602;45.192;5.722;2023-03-24T01:38:41;98767.13;;;13.50;75.02
62548;BME280;48602;45.192;5.722;2023-03-24T01:41:07;98748.84;;;13.46;75.29
62548;BME280;48602;45.192;5.722;2023-03-24T01:43:34;98739.19;;;13.45;74.97
62548;BME280;48602;45.192;5.722;2023-03-24T01:46:12;98733.03;;;13.44;74.34
62548;BME280;48602;45.192;5.722;2023-03-24T01:48:54;98737.31;;;13.47;74.46
62548;BME280;48602;45.192;5.722;2023-03-24T01:51:33;98735.50;;;13.47;74.46
62548;BME280;48602;45.192;5.722;2023-03-24T01:56:32;98724.66;;;13.52;75.07
62548;BME280;48602;45.192;5.722;2023-03-24T01:59:02;98729.09;;;13.51;74.49
62548;BME280;48602;45.192;5.722;2023-03-24T02:01:29;98723.81;;;13.51;74.58
62548;BME280;48602;45.192;5.722;2023-03-24T02:03:57;98738.75;;;13.52;74.62
62548;BME280;48602;45.192;5.722;2023-03-24T02:06:23;98738.00;;;13.50;75.29
62548;BME280;48602;45.192;5.722;2023-03-24T02:08:52;98741.66;;;13.48;75.18
62548;BME280;48602;45.192;5.722;2023-03-24T02:11:20;98765.75;;;13.43;75.75
62548;BME280;48602;45.192;5.722;2023-03-24T02:13:47;98717.53;;;13.38;75.94
62548;BME280;48602;45.192;5.722;2023-03-24T02:30:32;98737.09;;;13.20;77.03
62548;BME280;48602;45.192;5.722;2023-03-24T02:36:06;98741.63;;;13.18;77.30
62548;BME280;48602;45.192;5.722;2023-03-24T02:46:52;98717.78;;;13.34;75.60
62548;BME280;48602;45.192;5.722;2023-03-24T02:49:32;98742.22;;;13.39;75.30
62548;BME280;48602;45.192;5.722;2023-03-24T02:52:15;98723.69;;;13.39;75.64
62548;BME280;48602;45.192;5.722;2023-03-24T02:54:43;98741.34;;;13.38;75.29
62548;BME280;48602;45.192;5.722;2023-03-24T02:57:23;98725.56;;;13.37;75.65
62548;BME280;48602;45.192;5.722;2023-03-24T02:59:59;98737.94;;;13.36;75.41
62548;BME280;48602;45.192;5.722;2023-03-24T03:02:41;98741.44;;;13.37;75.62
62548;BME280;48602;45.192;5.722;2023-03-24T03:05:15;98736.84;;;13.40;75.59
62548;BME280;48602;45.192;5.722;2023-03-24T03:07:43;98740.97;;;13.44;75.78
62548;BME280;48602;45.192;5.722;2023-03-24T03:10:17;98727.47;;;13.49;75.94
62548;BME280;48602;45.192;5.722;2023-03-24T03:12:47;98733.63;;;13.49;75.19
62548;BME280;48602;45.192;5.722;2023-03-24T03:15:35;98730.72;;;13.54;75.69
62548;BME280;48602;45.192;5.722;2023-03-24T03:18:26;98735.66;;;13.60;75.78
62548;BME280;48602;45.192;5.722;2023-03-24T03:20:58;98740.78;;;13.63;74.85
62548;BME280;48602;45.192;5.722;2023-03-24T03:23:57;98730.00;;;13.66;74.58
62548;BME280;48602;45.192;5.722;2023-03-24T03:26:24;98744.78;;;13.70;74.66
62548;BME280;48602;45.192;5.722;2023-03-24T03:28:56;98735.88;;;13.71;74.30
62548;BME280;48602;45.192;5.722;2023-03-24T03:31:30;98727.94;;;13.71;73.87
62548;BME280;48602;45.192;5.722;2023-03-24T03:36:38;98729.75;;;13.71;73.83
62548;BME280;48602;45.192;5.722;2023-03-24T03:39:14;98739.31;;;13.73;74.04
62548;BME280;48602;45.192;5.722;2023-03-24T03:41:41;98727.56;;;13.77;74.18
62548;BME280;48602;45.192;5.722;2023-03-24T03:44:07;98733.53;;;13.81;74.63
62548;BME280;48602;45.192;5.722;2023-03-24T03:46:34;98728.16;;;13.82;74.60
62548;BME280;48602;45.192;5.722;2023-03-24T03:49:01;98720.13;;;13.84;74.63
62548;BME280;48602;45.192;5.722;2023-03-24T03:51:26;98730.53;;;13.87;74.57
62548;BME280;48602;45.192;5.722;2023-03-24T03:53:56;98746.34;;;13.88;74.47
62548;BME280;48602;45.192;5.722;2023-03-24T03:56:28;98747.94;;;13.91;74.45
62548;BME280;48602;45.192;5.722;2023-03-24T03:58:54;98734.59;;;13.92;74.41
62548;BME280;48602;45.192;5.722;2023-03-24T04:01:23;98739.72;;;13.95;74.23
62548;BME280;48602;45.192;5.722;2023-03-24T04:03:51;98736.22;;;13.95;74.05
62548;BME280;48602;45.192;5.722;2023-03-24T04:06:32;98756.94;;;13.88;73.71
62548;BME280;48602;45.192;5.722;2023-03-24T04:09:24;98734.47;;;13.80;73.38
62548;BME280;48602;45.192;5.722;2023-03-24T04:17:02;98704.88;;;13.73;73.47
62548;BME280;48602;45.192;5.722;2023-03-24T04:33:13;98733.41;;;13.38;73.80
62548;BME280;48602;45.192;5.722;2023-03-24T04:35:59;98715.91;;;13.36;74.01
62548;BME280;48602;45.192;5.722;2023-03-24T04:38:32;98727.34;;;13.36;73.33
62548;BME280;48602;45.192;5.722;2023-03-24T04:41:01;98724.69;;;13.36;73.60
62548;BME280;48602;45.192;5.722;2023-03-24T04:43:32;98746.75;;;13.37;73.16
62548;BME280;48602;45.192;5.722;2023-03-24T04:46:01;98742.22;;;13.39;73.23
62548;BME280;48602;45.192;5.722;2023-03-24T04:48:28;98735.13;;;13.39;72.00
62548;BME280;48602;45.192;5.722;2023-03-24T04:51:03;98766.91;;;13.39;71.26
62548;BME280;48602;45.192;5.722;2023-03-24T04:53:29;98781.72;;;13.42;69.38
62548;BME280;48602;45.192;5.722;2023-03-24T04:56:29;98745.06;;;13.50;67.68
62548;BME280;48602;45.192;5.722;2023-03-24T04:58:52;98778.09;;;13.58;67.01
62548;BME280;48602;45.192;5.722;2023-03-24T05:01:18;98787.59;;;13.62;67.89
62548;BME280;48602;45.192;5.722;2023-03-24T05:03:47;98790.84;;;13.68;67.82
62548;BME280;48602;45.192;5.722;2023-03-24T05:06:13;98806.38;;;13.74;68.03
62548;BME280;48602;45.192;5.722;2023-03-24T05:08:39;98808.06;;;13.75;67.89
62548;BME280;48602;45.192;5.722;2023-03-24T05:11:05;98794.81;;;13.75;67.76
62548;BME280;48602;45.192;5.722;2023-03-24T05:13:31;98811.50;;;13.77;67.33
62548;BME280;48602;45.192;5.722;2023-03-24T05:15:56;98805.34;;;13.76;66.64
62548;BME280;48602;45.192;5.722;2023-03-24T05:18:23;98791.06;;;13.79;66.92
62548;BME280;48602;45.192;5.722;2023-03-24T05:20:48;98795.31;;;13.81;67.16
62548;BME280;48602;45.192;5.722;2023-03-24T05:23:13;98796.94;;;13.84;67.14
62548;BME280;48602;45.192;5.722;2023-03-24T05:25:39;98805.66;;;13.86;68.66
62548;BME280;48602;45.192;5.722;2023-03-24T05:28:05;98806.53;;;13.86;70.08
62548;BME280;48602;45.192;5.722;2023-03-24T05:30:30;98809.00;;;13.89;70.54
62548;BME280;48602;45.192;5.722;2023-03-24T05:32:56;98798.97;;;13.94;71.17
62548;BME280;48602;45.192;5.722;2023-03-24T05:35:22;98814.59;;;13.99;71.42
62548;BME280;48602;45.192;5.722;2023-03-24T05:37:49;98813.56;;;14.02;71.04
62548;BME280;48602;45.192;5.722;2023-03-24T05:40:15;98809.13;;;14.02;71.08
62548;BME280;48602;45.192;5.722;2023-03-24T05:42:40;98818.69;;;14.05;71.03
62548;BME280;48602;45.192;5.722;2023-03-24T05:45:06;98835.38;;;14.07;71.43
62548;BME280;48602;45.192;5.722;2023-03-24T05:47:32;98852.13;;;14.07;71.45
62548;BME280;48602;45.192;5.722;2023-03-24T05:49:57;98869.81;;;14.07;71.36
62548;BME280;48602;45.192;5.722;2023-03-24T05:52:23;98884.97;;;14.05;69.25
62548;BME280;48602;45.192;5.722;2023-03-24T05:54:48;98897.72;;;13.98;68.20
62548;BME280;48602;45.192;5.722;2023-03-24T05:57:17;98893.69;;;13.91;68.39
62548;BME280;48602;45.192;5.722;2023-03-24T05:59:42;98900.97;;;13.87;68.43
62548;BME280;48602;45.192;5.722;2023-03-24T06:02:08;98904.56;;;13.86;68.51
62548;BME280;48602;45.192;5.722;2023-03-24T06:04:33;98906.28;;;13.87;68.08
62548;BME280;48602;45.192;5.722;2023-03-24T06:06:59;98910.81;;;13.85;68.76
62548;BME280;48602;45.192;5.722;2023-03-24T06:09:25;98905.59;;;13.84;69.05
62548;BME280;48602;45.192;5.722;2023-03-24T06:11:54;98895.16;;;13.81;69.23
62548;BME280;48602;45.192;5.722;2023-03-24T06:14:20;98885.59;;;13.78;69.20
62548;BME280;48602;45.192;5.722;2023-03-24T06:16:46;98871.22;;;13.82;69.71
62548;BME280;48602;45.192;5.722;2023-03-24T06:19:15;98852.44;;;13.87;70.15
62548;BME280;48602;45.192;5.722;2023-03-24T06:21:40;98856.50;;;13.92;71.01
62548;BME280;48602;45.192;5.722;2023-03-24T06:24:06;98852.72;;;13.96;71.99
62548;BME280;48602;45.192;5.722;2023-03-24T06:26:31;98855.97;;;14.02;72.49
62548;BME280;48602;45.192;5.722;2023-03-24T06:28:57;98850.59;;;14.03;73.35
62548;BME280;48602;45.192;5.722;2023-03-24T06:31:23;98847.09;;;14.03;73.83
62548;BME280;48602;45.192;5.722;2023-03-24T06:33:49;98846.16;;;14.04;73.78
62548;BME280;48602;45.192;5.722;2023-03-24T06:36:16;98836.31;;;14.06;74.06
62548;BME280;48602;45.192;5.722;2023-03-24T06:38:42;98836.31;;;14.06;74.10
62548;BME280;48602;45.192;5.722;2023-03-24T06:41:08;98839.81;;;14.06;73.30
62548;BME280;48602;45.192;5.722;2023-03-24T06:43:34;98846.06;;;14.05;72.79
62548;BME280;48602;45.192;5.722;2023-03-24T06:46:00;98861.97;;;14.05;71.94
62548;BME280;48602;45.192;5.722;2023-03-24T06:48:25;98865.13;;;13.96;73.13
62548;BME280;48602;45.192;5.722;2023-03-24T06:50:52;98872.00;;;13.84;74.07
62548;BME280;48602;45.192;5.722;2023-03-24T06:53:18;98875.28;;;13.74;73.57
62548;BME280;48602;45.192;5.722;2023-03-24T06:55:46;98875.69;;;13.66;73.36
62548;BME280;48602;45.192;5.722;2023-03-24T06:58:11;98904.22;;;13.61;73.52
62548;BME280;48602;45.192;5.722;2023-03-24T07:00:39;98920.28;;;13.58;73.52
62548;BME280;48602;45.192;5.722;2023-03-24T07:03:05;98923.97;;;13.55;72.97
62548;BME280;48602;45.192;5.722;2023-03-24T07:05:32;98924.06;;;13.54;72.80
62548;BME280;48602;45.192;5.722;2023-03-24T07:07:57;98941.75;;;13.53;71.64
62548;BME280;48602;45.192;5.722;2023-03-24T07:10:23;98931.41;;;13.49;72.33
62548;BME280;48602;45.192;5.722;2023-03-24T07:12:48;98936.88;;;13.46;72.77
62548;BME280;48602;45.192;5.722;2023-03-24T07:15:14;98926.63;;;13.40;72.43
62548;BME280;48602;45.192;5.722;2023-03-24T07:17:40;98929.50;;;13.35;73.27
62548;BME280;48602;45.192;5.722;2023-03-24T07:20:07;98927.72;;;13.36;73.33
62548;BME280;48602;45.192;5.722;2023-03-24T07:22:33;98931.22;;;13.36;74.07
62548;BME280;48602;45.192;5.722;2023-03-24T07:25:01;98930.38;;;13.36;73.95
62548;BME280;48602;45.192;5.722;2023-03-24T07:27:31;98931.31;;;13.35;73.88
62548;BME280;48602;45.192;5.722;2023-03-24T07:29:58;98927.63;;;13.37;74.45
62548;BME280;48602;45.192;5.722;2023-03-24T07:32:24;98935.41;;;13.40;74.51
62548;BME280;48602;45.192;5.722;2023-03-24T07:34:49;98930.78;;;13.44;74.28
62548;BME280;48602;45.192;5.722;2023-03-24T07:37:15;98940.28;;;13.48;74.45
62548;BME280;48602;45.192;5.722;2023-03-24T07:39:40;98936.69;;;13.49;75.06
62548;BME280;48602;45.192;5.722;2023-03-24T07:42:06;98940.13;;;13.51;75.66
62548;BME280;48602;45.192;5.722;2023-03-24T07:44:31;98947.06;;;13.53;75.06
62548;BME280;48602;45.192;5.722;2023-03-24T07:46:57;98958.59;;;13.52;74.77
62548;BME280;48602;45.192;5.722;2023-03-24T07:49:22;98968.41;;;13.50;74.12
62548;BME280;48602;45.192;5.722;2023-03-24T07:51:48;98968.56;;;13.47;74.12
62548;BME280;48602;45.192;5.722;2023-03-24T07:54:13;98953.75;;;13.43;74.53
62548;BME280;48602;45.192;5.722;2023-03-24T07:56:38;98967.19;;;13.40;75.78
62548;BME280;48602;45.192;5.722;2023-03-24T07:59:04;98966.50;;;13.37;75.30
62548;BME280;48602;45.192;5.722;2023-03-24T08:01:29;98966.75;;;13.32;75.61
62548;BME280;48602;45.192;5.722;2023-03-24T08:03:55;98960.66;;;13.30;75.93
62548;BME280;48602;45.192;5.722;2023-03-24T08:06:20;98964.09;;;13.32;75.66
62548;BME280;48602;45.192;5.722;2023-03-24T08:08:46;98966.34;;;13.40;75.52
62548;BME280;48602;45.192;5.722;2023-03-24T08:11:11;98960.53;;;13.49;75.56
62548;BME280;48602;45.192;5.722;2023-03-24T08:13:36;98959.16;;;13.57;74.17
62548;BME280;48602;45.192;5.722;2023-03-24T08:16:02;98964.81;;;13.67;73.70
62548;BME280;48602;45.192;5.722;2023-03-24T08:18:29;98963.19;;;13.80;73.10
62548;BME280;48602;45.192;5.722;2023-03-24T08:20:57;98954.63;;;13.91;72.09
62548;BME280;48602;45.192;5.722;2023-03-24T08:23:23;98957.72;;;13.99;71.78
62548;BME280;48602;45.192;5.722;2023-03-24T08:25:49;98950.69;;;14.14;71.73
62548;BME280;48602;45.192;5.722;2023-03-24T08:28:14;98953.56;;;14.25;72.55
62548;BME280;48602;45.192;5.722;2023-03-24T08:30:41;98949.28;;;14.38;71.93
62548;BME280;48602;45.192;5.722;2023-03-24T08:33:09;98938.75;;;14.52;72.43
62548;BME280;48602;45.192;5.722;2023-03-24T08:35:36;98945.22;;;14.62;70.23
62548;BME280;48602;45.192;5.722;2023-03-24T08:38:03;98939.16;;;14.75;70.85
62548;BME280;48602;45.192;5.722;2023-03-24T08:40:29;98945.28;;;14.91;70.41
62548;BME280;48602;45.192;5.722;2023-03-24T08:43:35;98947.88;;;15.07;69.39
62548;BME280;48602;45.192;5.722;2023-03-24T08:46:07;98945.94;;;15.09;69.22
62548;BME280;48602;45.192;5.722;2023-03-24T08:48:32;98934.38;;;15.10;68.76
62548;BME280;48602;45.192;5.722;2023-03-24T08:50:58;98935.22;;;15.10;68.21
62548;BME280;48602;45.192;5.722;2023-03-24T08:53:24;98939.91;;;15.07;67.14
62548;BME280;48602;45.192;5.722;2023-03-24T08:55:50;98938.47;;;15.01;68.30
62548;BME280;48602;45.192;5.722;2023-03-24T08:58:20;98946.78;;;14.95;68.04
62548;BME280;48602;45.192;5.722;2023-03-24T09:00:47;98944.78;;;14.84;68.20
62548;BME280;48602;45.192;5.722;2023-03-24T09:03:15;98949.78;;;14.75;67.53
62548;BME280;48602;45.192;5.722;2023-03-24T09:05:42;98934.41;;;14.65;67.59
62548;BME280;48602;45.192;5.722;2023-03-24T09:08:08;98926.91;;;14.58;67.99
62548;BME280;48602;45.192;5.722;2023-03-24T09:10:34;98936.19;;;14.51;67.83
62548;BME280;48602;45.192;5.722;2023-03-24T09:12:59;98940.81;;;14.47;67.73
62548;BME280;48602;45.192;5.722;2023-03-24T09:15:25;98941.00;;;14.44;67.72
62548;BME280;48602;45.192;5.722;2023-03-24T09:17:50;98943.66;;;14.44;68.41
62548;BME280;48602;45.192;5.722;2023-03-24T09:20:15;98955.03;;;14.46;67.91
62548;BME280;48602;45.192;5.722;2023-03-24T09:22:44;98960.50;;;14.43;68.02
62548;BME280;48602;45.192;5.722;2023-03-24T09:25:13;98951.09;;;14.38;68.23
62548;BME280;48602;45.192;5.722;2023-03-24T09:27:39;98955.72;;;14.34;68.46
62548;BME280;48602;45.192;5.722;2023-03-24T09:30:05;98955.63;;;14.36;68.56
62548;BME280;48602;45.192;5.722;2023-03-24T09:32:31;98955.63;;;14.36;67.68
62548;BME280;48602;45.192;5.722;2023-03-24T09:34:58;98943.91;;;14.40;67.90
62548;BME280;48602;45.192;5.722;2023-03-24T09:37:24;98948.09;;;14.44;68.02
62548;BME280;48602;45.192;5.722;2023-03-24T09:39:49;98949.44;;;14.51;66.94
62548;BME280;48602;45.192;5.722;2023-03-24T09:42:22;98957.78;;;14.59;67.10
62548;BME280;48602;45.192;5.722;2023-03-24T09:44:52;98958.91;;;14.71;66.03
62548;BME280;48602;45.192;5.722;2023-03-24T09:47:26;98956.53;;;14.80;65.89
62548;BME280;48602;45.192;5.722;2023-03-24T09:49:55;98960.63;;;14.86;64.75
62548;BME280;48602;45.192;5.722;2023-03-24T09:52:34;98950.47;;;14.92;65.25
62548;BME280;48602;45.192;5.722;2023-03-24T09:55:03;98948.72;;;15.07;65.21
62548;BME280;48602;45.192;5.722;2023-03-24T09:59:57;98945.03;;;15.38;63.84
62548;BME280;48602;45.192;5.722;2023-03-24T10:02:27;98953.06;;;15.51;63.72
62548;BME280;48602;45.192;5.722;2023-03-24T10:04:54;98947.84;;;15.63;63.60
62548;BME280;48602;45.192;5.722;2023-03-24T10:07:43;98941.97;;;15.73;63.05
62548;BME280;48602;45.192;5.722;2023-03-24T10:10:26;98920.84;;;15.84;63.32
62548;BME280;48602;45.192;5.722;2023-03-24T10:13:03;98940.19;;;16.00;64.33
62548;BME280;48602;45.192;5.722;2023-03-24T10:15:31;98942.59;;;16.17;64.40
62548;BME280;48602;45.192;5.722;2023-03-24T10:20:51;98943.00;;;16.51;64.28
62548;BME280;48602;45.192;5.722;2023-03-24T10:25:59;98954.81;;;16.73;63.83
62548;BME280;48602;45.192;5.722;2023-03-24T10:29:01;98955.97;;;16.82;63.33
62548;BME280;48602;45.192;5.722;2023-03-24T10:31:31;98960.13;;;16.73;60.03
62548;BME280;48602;45.192;5.722;2023-03-24T10:33:57;98949.66;;;16.58;60.36
62548;BME280;48602;45.192;5.722;2023-03-24T10:36:23;98945.69;;;16.51;58.51
62548;BME280;48602;45.192;5.722;2023-03-24T10:38:49;98953.09;;;16.46;58.67
62548;BME280;48602;45.192;5.722;2023-03-24T10:41:18;98959.91;;;16.37;58.83
62548;BME280;48602;45.192;5.722;2023-03-24T10:43:44;98957.22;;;16.24;59.45
62548;BME280;48602;45.192;5.722;2023-03-24T10:46:13;98942.69;;;16.16;59.56
62548;BME280;48602;45.192;5.722;2023-03-24T10:48:49;98945.75;;;16.10;60.29
62548;BME280;48602;45.192;5.722;2023-03-24T10:51:26;98947.44;;;16.11;60.04
62548;BME280;48602;45.192;5.722;2023-03-24T10:54:20;98953.94;;;16.07;60.13
62548;BME280;48602;45.192;5.722;2023-03-24T10:57:14;98953.38;;;16.01;59.97
62548;BME280;48602;45.192;5.722;2023-03-24T10:59:37;98938.28;;;16.02;60.34
62548;BME280;48602;45.192;5.722;2023-03-24T11:02:17;98937.31;;;16.03;60.22
62548;BME280;48602;45.192;5.722;2023-03-24T11:04:53;98945.13;;;16.06;59.88
62548;BME280;48602;45.192;5.722;2023-03-24T11:07:24;98942.13;;;16.11;59.86
62548;BME280;48602;45.192;5.722;2023-03-24T11:10:16;98936.31;;;16.18;60.06
62548;BME280;48602;45.192;5.722;2023-03-24T11:17:53;98936.09;;;16.48;60.13
62548;BME280;48602;45.192;5.722;2023-03-24T11:20:25;98926.13;;;16.64;59.77
62548;BME280;48602;45.192;5.722;2023-03-24T11:23:02;98921.56;;;16.79;59.69
62548;BME280;48602;45.192;5.722;2023-03-24T11:25:32;98917.75;;;16.83;58.90
62548;BME280;48602;45.192;5.722;2023-03-24T11:28:01;98918.31;;;16.88;58.98
62548;BME280;48602;45.192;5.722;2023-03-24T11:30:32;98918.31;;;16.88;58.64
62548;BME280;48602;45.192;5.722;2023-03-24T11:32:59;98919.34;;;16.86;58.28
62548;BME280;48602;45.192;5.722;2023-03-24T11:35:26;98921.47;;;16.81;58.54
62548;BME280;48602;45.192;5.722;2023-03-24T11:37:53;98916.44;;;16.76;58.63
62548;BME280;48602;45.192;5.722;2023-03-24T11:40:22;98912.53;;;16.69;58.86
62548;BME280;48602;45.192;5.722;2023-03-24T11:42:59;98908.91;;;16.70;59.27
62548;BME280;48602;45.192;5.722;2023-03-24T11:47:57;98911.13;;;16.76;58.85
62548;BME280;48602;45.192;5.722;2023-03-24T11:50:29;98911.97;;;16.77;57.94
62548;BME280;48602;45.192;5.722;2023-03-24T11:53:20;98908.25;;;16.66;58.09
62548;BME280;48602;45.192;5.722;2023-03-24T11:55:58;98913.25;;;16.58;58.15
62548;BME280;48602;45.192;5.722;2023-03-24T11:58:36;98910.22;;;16.50;58.10
62548;BME280;48602;45.192;5.722;2023-03-24T12:01:09;98913.81;;;16.36;58.16
62548;BME280;48602;45.192;5.722;2023-03-24T12:04:43;98914.53;;;16.26;58.37
62548;BME280;48602;45.192;5.722;2023-03-24T12:17:13;98892.31;;;16.00;59.66
62548;BME280;48602;45.192;5.722;2023-03-24T12:33:18;98898.50;;;16.00;60.41
62548;BME280;48602;45.192;5.722;2023-03-24T12:41:26;98910.22;;;15.84;61.16
62548;BME280;48602;45.192;5.722;2023-03-24T12:44:20;98901.50;;;15.82;61.28
62548;BME280;48602;45.192;5.722;2023-03-24T12:55:18;98904.97;;;15.69;61.48
62548;BME280;48602;45.192;5.722;2023-03-24T12:58:15;98883.22;;;15.63;61.86
62548;BME280;48602;45.192;5.722;2023-03-24T13:00:56;98886.84;;;15.62;61.62
62548;BME280;48602;45.192;5.722;2023-03-24T13:03:32;98905.16;;;15.66;62.33
62548;BME280;48602;45.192;5.722;2023-03-24T13:06:16;98911.22;;;15.68;62.47
62548;BME280;48602;45.192;5.722;2023-03-24T13:08:59;98899.22;;;15.76;62.63
62548;BME280;48602;45.192;5.722;2023-03-24T13:11:35;98914.22;;;15.77;61.97
62548;BME280;48602;45.192;5.722;2023-03-24T13:14:03;98896.28;;;15.80;62.29
62548;BME280;48602;45.192;5.722;2023-03-24T13:16:36;98884.09;;;15.90;62.40
62548;BME280;48602;45.192;5.722;2023-03-24T13:19:18;98883.94;;;16.06;62.90
62548;BME280;48602;45.192;5.722;2023-03-24T13:21:45;98872.19;;;16.23;63.81
62548;BME280;48602;45.192;5.722;2023-03-24T13:24:11;98881.47;;;16.42;63.98
62548;BME280;48602;45.192;5.722;2023-03-24T13:32:10;98891.31;;;16.93;63.39
62548;BME280;48602;45.192;5.722;2023-03-24T13:34:45;98888.88;;;17.02;63.17
62548;BME280;48602;45.192;5.722;2023-03-24T13:37:23;98869.59;;;17.12;62.49
62548;BME280;48602;45.192;5.722;2023-03-24T13:39:57;98867.03;;;17.23;62.56
62548;BME280;48602;45.192;5.722;2023-03-24T13:42:35;98882.34;;;17.32;61.57
62548;BME280;48602;45.192;5.722;2023-03-24T13:45:04;98881.81;;;17.39;61.47
62548;BME280;48602;45.192;5.722;2023-03-24T13:47:49;98870.47;;;17.49;61.29
62548;BME280;48602;45.192;5.722;2023-03-24T13:50:18;98871.13;;;17.52;60.62
62548;BME280;48602;45.192;5.722;2023-03-24T13:52:47;98870.91;;;17.55;60.80
62548;BME280;48602;45.192;5.722;2023-03-24T13:55:22;98857.00;;;17.63;60.73
62548;BME280;48602;45.192;5.722;2023-03-24T13:57:59;98858.28;;;17.70;60.45
62548;BME280;48602;45.192;5.722;2023-03-24T14:00:28;98859.66;;;17.75;60.39
62548;BME280;48602;45.192;5.722;2023-03-24T14:02:55;98850.94;;;17.73;58.98
62548;BME280;48602;45.192;5.722;2023-03-24T14:06:17;98853.06;;;17.68;58.84
62548;BME280;48602;45.192;5.722;2023-03-24T14:09:01;98841.22;;;17.72;59.44
62548;BME280;48602;45.192;5.722;2023-03-24T14:19:22;98833.19;;;17.96;58.43
62548;BME280;48602;45.192;5.722;2023-03-24T14:21:56;98839.13;;;17.89;58.17
62548;BME280;48602;45.192;5.722;2023-03-24T14:24:25;98843.66;;;17.75;58.07
62548;BME280;48602;45.192;5.722;2023-03-24T14:26:52;98826.06;;;17.60;58.24
62548;BME280;48602;45.192;5.722;2023-03-24T14:29:36;98818.34;;;17.44;58.21
62548;BME280;48602;45.192;5.722;2023-03-24T14:32:03;98821.91;;;17.32;58.91
62548;BME280;48602;45.192;5.722;2023-03-24T14:34:29;98818.53;;;17.18;58.75
62548;BME280;48602;45.192;5.722;2023-03-24T14:37:03;98815.81;;;17.06;59.29
62548;BME280;48602;45.192;5.722;2023-03-24T14:39:43;98820.72;;;17.00;59.62
62548;BME280;48602;45.192;5.722;2023-03-24T14:48:30;98803.03;;;17.35;58.93
62548;BME280;48602;45.192;5.722;2023-03-24T14:51:00;98805.50;;;17.38;58.81
62548;BME280;48602;45.192;5.722;2023-03-24T14:53:28;98796.53;;;17.39;58.46
62548;BME280;48602;45.192;5.722;2023-03-24T14:55:54;98807.94;;;17.41;58.32
62548;BME280;48602;45.192;5.722;2023-03-24T14:58:34;98806.13;;;17.42;57.91
62548;BME280;48602;45.192;5.722;2023-03-24T15:01:04;98793.03;;;17.39;58.45
62548;BME280;48602;45.192;5.722;2023-03-24T15:03:40;98788.44;;;17.41;58.18
62548;BME280;48602;45.192;5.722;2023-03-24T15:06:17;98781.28;;;17.41;58.47
62548;BME280;48602;45.192;5.722;2023-03-24T15:08:53;98786.94;;;17.37;58.29
62548;BME280;48602;45.192;5.722;2023-03-24T15:11:27;98788.56;;;17.27;58.19
62548;BME280;48602;45.192;5.722;2023-03-24T15:13:58;98782.63;;;17.23;58.33
62548;BME280;48602;45.192;5.722;2023-03-24T15:16:28;98767.50;;;17.24;58.46
62548;BME280;48602;45.192;5.722;2023-03-24T15:19:07;98763.97;;;17.23;58.62